Bitte eine E-Mail-Adresse für das Benutzerkonto eingeben. Ein Bestätigungscode wird dann an diese verschickt. Sobald der Code vorliegt, kann ein neues Passwort für das Benutzerkonto festgelegt werden.

WebCam

  
Kamera Halle
Kamera Vorfeld
Wetter EDDS

METAR

EDDS 180050Z 10003KT 070V130 9999 FEW033 12/11 Q1014 =
EDDS 172300Z 1800/1824 VRB03KT 9999 SCT035 BECMG 1809/1811 21007KT TEMPO 1810/1816 23015G30KT 3000 SHRA SCT010 BKN015CB BECMG 1816/1818 VRB03KT


TAF

EDDS 172300Z 1800/1824 VRB03KT 9999 SCT035 BECMG 1809/1811 21007KT TEMPO 1810/1816 23015G30KT 3000 SHRA SCT010 BKN015CB BECMG 1816/1818 VRB03KT =


SR/SS

05:45 / 16:27 UTC
(EDSO 18-10-2019)